sensor_id;sensor_type;location;lat;lon;timestamp;pressure;altitude;pressure_sealevel;temperature;humidity
54146;BME280;65909;49.422;7.738;2023-02-13T00:00:59;78194.06;;;-145.25;78.69
54146;BME280;65909;49.422;7.738;2023-02-13T00:03:24;78202.09;;;-145.25;79.18
54146;BME280;65909;49.422;7.738;2023-02-13T00:05:49;78198.06;;;-145.25;79.28
54146;BME280;65909;49.422;7.738;2023-02-13T00:08:15;78184.03;;;-145.25;78.57
54146;BME280;65909;49.422;7.738;2023-02-13T00:10:40;78182.03;;;-145.25;78.80
54146;BME280;65909;49.422;7.738;2023-02-13T00:13:05;78165.97;;;-145.25;78.42
54146;BME280;65909;49.422;7.738;2023-02-13T00:15:31;78157.97;;;-145.25;77.73
54146;BME280;65909;49.422;7.738;2023-02-13T00:17:56;78151.94;;;-145.25;77.69
54146;BME280;65909;49.422;7.738;2023-02-13T00:20:22;78153.94;;;-145.25;77.66
54146;BME280;65909;49.422;7.738;2023-02-13T00:22:47;78157.97;;;-145.25;77.95
54146;BME280;65909;49.422;7.738;2023-02-13T00:25:12;78133.88;;;-145.25;77.73
54146;BME280;65909;49.422;7.738;2023-02-13T00:27:38;78137.91;;;-145.25;76.93
54146;BME280;65909;49.422;7.738;2023-02-13T00:30:04;78127.88;;;-145.25;77.25
54146;BME280;65909;49.422;7.738;2023-02-13T00:32:29;78127.88;;;-145.25;77.24
54146;BME280;65909;49.422;7.738;2023-02-13T00:34:56;78119.84;;;-145.25;76.90
54146;BME280;65909;49.422;7.738;2023-02-13T00:37:21;78119.84;;;-145.25;76.59
54146;BME280;65909;49.422;7.738;2023-02-13T00:39:47;78117.84;;;-145.25;76.75
54146;BME280;65909;49.422;7.738;2023-02-13T00:42:12;78105.81;;;-145.25;76.70
54146;BME280;65909;49.422;7.738;2023-02-13T00:44:37;78107.81;;;-145.25;76.53
54146;BME280;65909;49.422;7.738;2023-02-13T00:47:03;78121.84;;;-145.25;77.06
54146;BME280;65909;49.422;7.738;2023-02-13T00:49:28;78119.84;;;-145.25;77.13
54146;BME280;65909;49.422;7.738;2023-02-13T00:51:53;78115.84;;;-145.25;76.51
54146;BME280;65909;49.422;7.738;2023-02-13T00:54:19;78111.81;;;-145.25;76.41
54146;BME280;65909;49.422;7.738;2023-02-13T00:56:44;78103.81;;;-145.25;76.66
54146;BME280;65909;49.422;7.738;2023-02-13T00:59:09;78115.84;;;-145.25;76.52
54146;BME280;65909;49.422;7.738;2023-02-13T01:01:35;78113.81;;;-145.25;76.64
54146;BME280;65909;49.422;7.738;2023-02-13T01:04:00;78111.81;;;-145.25;76.09
54146;BME280;65909;49.422;7.738;2023-02-13T01:06:26;78121.84;;;-145.25;76.30
54146;BME280;65909;49.422;7.738;2023-02-13T01:08:51;78135.91;;;-145.25;76.94
54146;BME280;65909;49.422;7.738;2023-02-13T01:11:16;78167.97;;;-145.25;77.80
54146;BME280;65909;49.422;7.738;2023-02-13T01:13:43;78145.91;;;-145.25;77.16
54146;BME280;65909;49.422;7.738;2023-02-13T01:16:08;78135.91;;;-145.25;77.19
54146;BME280;65909;49.422;7.738;2023-02-13T01:18:34;78157.97;;;-145.25;76.87
54146;BME280;65909;49.422;7.738;2023-02-13T01:21:02;78167.97;;;-145.25;77.61
54146;BME280;65909;49.422;7.738;2023-02-13T01:23:32;78170.00;;;-145.25;78.11
54146;BME280;65909;49.422;7.738;2023-02-13T01:25:58;78180.03;;;-145.25;77.63
54146;BME280;65909;49.422;7.738;2023-02-13T01:28:23;78182.03;;;-145.25;77.49
54146;BME280;65909;49.422;7.738;2023-02-13T01:30:53;78202.09;;;-145.25;77.57
54146;BME280;65909;49.422;7.738;2023-02-13T01:33:20;78200.06;;;-145.25;77.07
54146;BME280;65909;49.422;7.738;2023-02-13T01:35:45;78212.09;;;-145.25;76.90
54146;BME280;65909;49.422;7.738;2023-02-13T01:38:11;78218.13;;;-145.25;76.01
54146;BME280;65909;49.422;7.738;2023-02-13T01:40:43;78206.09;;;-145.25;77.18
54146;BME280;65909;49.422;7.738;2023-02-13T01:43:10;78218.13;;;-145.25;77.05
54146;BME280;65909;49.422;7.738;2023-02-13T01:45:36;78210.09;;;-145.25;77.65
54146;BME280;65909;49.422;7.738;2023-02-13T01:48:04;78204.09;;;-145.25;77.71
54146;BME280;65909;49.422;7.738;2023-02-13T01:53:37;78246.22;;;-145.25;79.23
54146;BME280;65909;49.422;7.738;2023-02-13T01:56:14;78246.22;;;-145.25;78.94
54146;BME280;65909;49.422;7.738;2023-02-13T01:58:43;78220.13;;;-145.25;78.85
54146;BME280;65909;49.422;7.738;2023-02-13T02:01:10;78228.16;;;-145.25;78.15
54146;BME280;65909;49.422;7.738;2023-02-13T02:03:40;78204.09;;;-145.25;77.82
54146;BME280;65909;49.422;7.738;2023-02-13T02:06:10;78184.03;;;-145.25;77.24
54146;BME280;65909;49.422;7.738;2023-02-13T02:08:38;78176.00;;;-145.25;77.30
54146;BME280;65909;49.422;7.738;2023-02-13T02:11:16;78192.06;;;-145.25;76.85
54146;BME280;65909;49.422;7.738;2023-02-13T02:13:45;78161.97;;;-145.25;77.19
54146;BME280;65909;49.422;7.738;2023-02-13T02:16:10;78139.91;;;-145.25;76.69
54146;BME280;65909;49.422;7.738;2023-02-13T02:18:36;78151.94;;;-145.25;76.02
54146;BME280;65909;49.422;7.738;2023-02-13T02:40:24;78149.94;;;-145.25;76.43
54146;BME280;65909;49.422;7.738;2023-02-13T02:43:25;78161.97;;;-145.25;76.52
54146;BME280;65909;49.422;7.738;2023-02-13T02:46:00;78151.94;;;-145.25;76.04
54146;BME280;65909;49.422;7.738;2023-02-13T02:48:52;78163.97;;;-145.25;76.13
54146;BME280;65909;49.422;7.738;2023-02-13T02:51:54;78174.00;;;-145.25;76.45
54146;BME280;65909;49.422;7.738;2023-02-13T02:54:36;78176.00;;;-145.25;76.92
54146;BME280;65909;49.422;7.738;2023-02-13T02:57:29;78206.09;;;-145.25;77.23
54146;BME280;65909;49.422;7.738;2023-02-13T03:00:17;78224.16;;;-145.25;77.65
54146;BME280;65909;49.422;7.738;2023-02-13T03:03:04;78210.09;;;-145.25;77.84
54146;BME280;65909;49.422;7.738;2023-02-13T03:05:50;78224.16;;;-145.25;77.82
54146;BME280;65909;49.422;7.738;2023-02-13T03:08:35;78232.16;;;-145.25;78.21
54146;BME280;65909;49.422;7.738;2023-02-13T03:11:18;78226.16;;;-145.25;77.88
54146;BME280;65909;49.422;7.738;2023-02-13T03:14:04;78236.19;;;-145.25;77.67
54146;BME280;65909;49.422;7.738;2023-02-13T03:16:32;78234.16;;;-145.25;77.82
54146;BME280;65909;49.422;7.738;2023-02-13T03:19:24;78244.19;;;-145.25;77.70
54146;BME280;65909;49.422;7.738;2023-02-13T03:22:44;78256.22;;;-145.25;78.29
54146;BME280;65909;49.422;7.738;2023-02-13T03:28:21;78288.31;;;-145.25;79.40
54146;BME280;65909;49.422;7.738;2023-02-13T03:31:58;78300.38;;;-145.25;79.65
54146;BME280;65909;49.422;7.738;2023-02-13T03:34:03;78330.44;;;-145.25;79.93
54146;BME280;65909;49.422;7.738;2023-02-13T03:36:47;78342.47;;;-145.25;80.33
54146;BME280;65909;49.422;7.738;2023-02-13T03:39:57;78332.47;;;-145.25;80.40
54146;BME280;65909;49.422;7.738;2023-02-13T03:42:41;78346.50;;;-145.25;80.89
54146;BME280;65909;49.422;7.738;2023-02-13T03:45:16;78346.50;;;-145.25;80.69
54146;BME280;65909;49.422;7.738;2023-02-13T03:48:03;78364.56;;;-145.25;81.38
54146;BME280;65909;49.422;7.738;2023-02-13T03:50:58;78374.56;;;-145.25;81.56
54146;BME280;65909;49.422;7.738;2023-02-13T03:53:25;78394.63;;;-145.25;81.54
54146;BME280;65909;49.422;7.738;2023-02-13T03:55:53;78398.66;;;-145.25;82.29
54146;BME280;65909;49.422;7.738;2023-02-13T03:58:42;78414.69;;;-145.25;83.12
54146;BME280;65909;49.422;7.738;2023-02-13T04:01:29;78394.63;;;-145.25;82.58
54146;BME280;65909;49.422;7.738;2023-02-13T04:04:18;78418.72;;;-145.25;83.11
54146;BME280;65909;49.422;7.738;2023-02-13T04:09:15;78420.72;;;-145.25;83.43
54146;BME280;65909;49.422;7.738;2023-02-13T04:14:16;78464.84;;;-145.25;83.89
54146;BME280;65909;49.422;7.738;2023-02-13T04:16:51;78490.91;;;-145.25;84.98
54146;BME280;65909;49.422;7.738;2023-02-13T04:19:18;78482.88;;;-145.25;85.22
54146;BME280;65909;49.422;7.738;2023-02-13T04:21:48;78482.88;;;-145.25;85.24
54146;BME280;65909;49.422;7.738;2023-02-13T04:24:18;78476.88;;;-145.25;84.83
54146;BME280;65909;49.422;7.738;2023-02-13T04:26:44;78488.91;;;-145.25;84.88
54146;BME280;65909;49.422;7.738;2023-02-13T04:29:10;78500.94;;;-145.25;85.26
54146;BME280;65909;49.422;7.738;2023-02-13T04:31:35;78494.94;;;-145.25;85.14
54146;BME280;65909;49.422;7.738;2023-02-13T04:34:01;78527.03;;;-145.25;85.76
54146;BME280;65909;49.422;7.738;2023-02-13T04:36:26;78531.03;;;-145.25;86.23
54146;BME280;65909;49.422;7.738;2023-02-13T04:38:52;78531.03;;;-145.25;86.60
54146;BME280;65909;49.422;7.738;2023-02-13T04:41:18;78517.00;;;-145.25;85.72
54146;BME280;65909;49.422;7.738;2023-02-13T04:43:43;78533.03;;;-145.25;85.98
54146;BME280;65909;49.422;7.738;2023-02-13T04:46:09;78555.09;;;-145.25;87.03
54146;BME280;65909;49.422;7.738;2023-02-13T04:48:34;78537.06;;;-145.25;86.26
54146;BME280;65909;49.422;7.738;2023-02-13T04:50:59;78517.00;;;-145.25;85.27
54146;BME280;65909;49.422;7.738;2023-02-13T04:53:25;78529.03;;;-145.25;85.44
54146;BME280;65909;49.422;7.738;2023-02-13T04:55:50;78553.09;;;-145.25;85.84
54146;BME280;65909;49.422;7.738;2023-02-13T04:58:16;78555.09;;;-145.25;86.24
54146;BME280;65909;49.422;7.738;2023-02-13T05:00:41;78565.13;;;-145.25;86.40
54146;BME280;65909;49.422;7.738;2023-02-13T05:03:10;78557.09;;;-145.25;86.23
54146;BME280;65909;49.422;7.738;2023-02-13T05:05:36;78573.16;;;-145.25;87.03
54146;BME280;65909;49.422;7.738;2023-02-13T05:08:02;78563.13;;;-145.25;87.05
54146;BME280;65909;49.422;7.738;2023-02-13T05:10:27;78551.09;;;-145.25;86.43
54146;BME280;65909;49.422;7.738;2023-02-13T05:12:53;78585.19;;;-145.25;86.23
54146;BME280;65909;49.422;7.738;2023-02-13T05:15:18;78579.19;;;-145.25;86.36
54146;BME280;65909;49.422;7.738;2023-02-13T05:17:45;78581.19;;;-145.25;85.72
54146;BME280;65909;49.422;7.738;2023-02-13T05:20:11;78591.22;;;-145.25;86.00
54146;BME280;65909;49.422;7.738;2023-02-13T05:22:37;78591.22;;;-145.25;86.21
54146;BME280;65909;49.422;7.738;2023-02-13T05:25:26;78595.22;;;-145.25;85.87
54146;BME280;65909;49.422;7.738;2023-02-13T05:27:51;78599.22;;;-145.25;86.20
54146;BME280;65909;49.422;7.738;2023-02-13T05:30:16;78609.25;;;-145.25;86.14
54146;BME280;65909;49.422;7.738;2023-02-13T05:32:42;78619.28;;;-145.25;86.36
54146;BME280;65909;49.422;7.738;2023-02-13T05:35:07;78613.28;;;-145.25;86.21
54146;BME280;65909;49.422;7.738;2023-02-13T05:37:33;78617.28;;;-145.25;86.06
54146;BME280;65909;49.422;7.738;2023-02-13T05:39:58;78631.34;;;-145.25;85.79
54146;BME280;65909;49.422;7.738;2023-02-13T05:42:23;78627.31;;;-145.25;85.95
54146;BME280;65909;49.422;7.738;2023-02-13T05:44:49;78615.28;;;-145.25;85.41
54146;BME280;65909;49.422;7.738;2023-02-13T05:47:14;78631.34;;;-145.25;86.09
54146;BME280;65909;49.422;7.738;2023-02-13T05:49:40;78637.34;;;-145.25;85.48
54146;BME280;65909;49.422;7.738;2023-02-13T05:52:05;78641.34;;;-145.25;85.87
54146;BME280;65909;49.422;7.738;2023-02-13T05:54:30;78641.34;;;-145.25;85.55
54146;BME280;65909;49.422;7.738;2023-02-13T05:56:56;78671.44;;;-145.25;85.03
54146;BME280;65909;49.422;7.738;2023-02-13T05:59:21;78687.50;;;-145.25;86.16
54146;BME280;65909;49.422;7.738;2023-02-13T06:01:46;78671.44;;;-145.25;86.05
54146;BME280;65909;49.422;7.738;2023-02-13T06:04:12;78675.47;;;-145.25;85.45
54146;BME280;65909;49.422;7.738;2023-02-13T06:06:37;78675.47;;;-145.25;84.99
54146;BME280;65909;49.422;7.738;2023-02-13T06:09:03;78697.53;;;-145.25;85.47
54146;BME280;65909;49.422;7.738;2023-02-13T06:11:29;78691.50;;;-145.25;85.35
54146;BME280;65909;49.422;7.738;2023-02-13T06:13:54;78699.53;;;-145.25;85.75
54146;BME280;65909;49.422;7.738;2023-02-13T06:16:20;78729.63;;;-145.25;87.18
54146;BME280;65909;49.422;7.738;2023-02-13T06:18:46;78715.59;;;-145.25;87.24
54146;BME280;65909;49.422;7.738;2023-02-13T06:21:12;78729.63;;;-145.25;87.08
54146;BME280;65909;49.422;7.738;2023-02-13T06:23:37;78785.78;;;-145.25;87.68
54146;BME280;65909;49.422;7.738;2023-02-13T06:26:07;78799.84;;;-145.25;88.70
54146;BME280;65909;49.422;7.738;2023-02-13T06:28:33;78779.78;;;-145.25;88.76
54146;BME280;65909;49.422;7.738;2023-02-13T06:30:59;78759.72;;;-145.25;88.84
54146;BME280;65909;49.422;7.738;2023-02-13T06:33:24;78743.66;;;-145.25;88.17
54146;BME280;65909;49.422;7.738;2023-02-13T06:35:50;78741.66;;;-145.25;87.29
54146;BME280;65909;49.422;7.738;2023-02-13T06:38:15;78757.72;;;-145.25;88.25
54146;BME280;65909;49.422;7.738;2023-02-13T06:40:46;78783.78;;;-145.25;89.25
54146;BME280;65909;49.422;7.738;2023-02-13T06:43:11;78783.78;;;-145.25;88.89
54146;BME280;65909;49.422;7.738;2023-02-13T06:45:36;78775.75;;;-145.25;89.24
54146;BME280;65909;49.422;7.738;2023-02-13T06:48:02;78747.69;;;-145.25;88.47
54146;BME280;65909;49.422;7.738;2023-02-13T06:50:27;78775.75;;;-145.25;87.82
54146;BME280;65909;49.422;7.738;2023-02-13T06:52:52;78771.75;;;-145.25;88.48
54146;BME280;65909;49.422;7.738;2023-02-13T06:55:18;78751.69;;;-145.25;87.63
54146;BME280;65909;49.422;7.738;2023-02-13T06:57:45;78777.75;;;-145.25;87.62
54146;BME280;65909;49.422;7.738;2023-02-13T07:00:12;78753.69;;;-145.25;87.92
54146;BME280;65909;49.422;7.738;2023-02-13T07:02:39;78755.69;;;-145.25;87.71
54146;BME280;65909;49.422;7.738;2023-02-13T07:05:05;78737.66;;;-145.25;87.61
54146;BME280;65909;49.422;7.738;2023-02-13T07:07:34;78723.59;;;-145.25;86.77
54146;BME280;65909;49.422;7.738;2023-02-13T07:10:00;78703.53;;;-145.25;86.82
54146;BME280;65909;49.422;7.738;2023-02-13T07:12:26;78669.44;;;-145.25;85.70
54146;BME280;65909;49.422;7.738;2023-02-13T07:14:51;78631.34;;;-145.25;85.07
54146;BME280;65909;49.422;7.738;2023-02-13T07:17:17;78673.47;;;-145.25;82.52
54146;BME280;65909;49.422;7.738;2023-02-13T07:19:42;78683.47;;;-145.25;83.68
54146;BME280;65909;49.422;7.738;2023-02-13T07:22:07;78675.47;;;-145.25;84.11
54146;BME280;65909;49.422;7.738;2023-02-13T07:24:33;78633.34;;;-145.25;83.79
54146;BME280;65909;49.422;7.738;2023-02-13T07:27:00;78637.34;;;-145.25;82.06
54146;BME280;65909;49.422;7.738;2023-02-13T07:29:25;78609.25;;;-145.25;83.03
54146;BME280;65909;49.422;7.738;2023-02-13T07:31:51;78569.16;;;-145.25;80.97
54146;BME280;65909;49.422;7.738;2023-02-13T07:34:16;78687.50;;;-145.25;81.46
54146;BME280;65909;49.422;7.738;2023-02-13T07:36:41;78659.41;;;-145.25;82.44
54146;BME280;65909;49.422;7.738;2023-02-13T07:39:07;78583.19;;;-145.25;81.77
54146;BME280;65909;49.422;7.738;2023-02-13T07:41:32;78370.56;;;-145.25;78.19
54146;BME280;65909;49.422;7.738;2023-02-13T07:43:57;78027.59;;;-145.25;68.96
54146;BME280;65909;49.422;7.738;2023-02-13T07:46:23;77732.75;;;-145.25;59.41
54146;BME280;65909;49.422;7.738;2023-02-13T07:48:50;77560.31;;;-145.25;54.56
54146;BME280;65909;49.422;7.738;2023-02-13T07:51:16;77530.22;;;-145.25;51.36
54146;BME280;65909;49.422;7.738;2023-02-13T07:53:41;77524.19;;;-145.25;51.57
54146;BME280;65909;49.422;7.738;2023-02-13T07:56:08;77472.06;;;-145.25;49.79
54146;BME280;65909;49.422;7.738;2023-02-13T07:58:35;77760.84;;;-145.25;55.44
54146;BME280;65909;49.422;7.738;2023-02-13T08:01:14;77572.34;;;-145.25;52.90
54146;BME280;65909;49.422;7.738;2023-02-13T08:03:40;77732.75;;;-145.25;54.47
54146;BME280;65909;49.422;7.738;2023-02-13T08:06:06;77558.28;;;-145.25;51.66
54146;BME280;65909;49.422;7.738;2023-02-13T08:08:32;77363.78;;;-145.25;47.83
54146;BME280;65909;49.422;7.738;2023-02-13T08:11:04;77175.28;;;-145.25;44.61
54146;BME280;65909;49.422;7.738;2023-02-13T08:13:48;77073.00;;;-145.25;43.27
54146;BME280;65909;49.422;7.738;2023-02-13T08:16:13;77038.94;;;-145.25;42.78
54146;BME280;65909;49.422;7.738;2023-02-13T08:18:39;77046.94;;;-145.25;42.89
54146;BME280;65909;49.422;7.738;2023-02-13T08:21:04;76866.50;;;-145.25;41.02
54146;BME280;65909;49.422;7.738;2023-02-13T08:23:29;76838.41;;;-145.25;39.80
54146;BME280;65909;49.422;7.738;2023-02-13T08:25:59;76808.34;;;-145.25;39.11
54146;BME280;65909;49.422;7.738;2023-02-13T08:28:25;76758.22;;;-145.25;38.21
54146;BME280;65909;49.422;7.738;2023-02-13T08:30:50;76631.91;;;-145.25;36.54
54146;BME280;65909;49.422;7.738;2023-02-13T08:33:15;76688.03;;;-145.25;36.87
54146;BME280;65909;49.422;7.738;2023-02-13T08:35:41;76613.84;;;-145.25;36.41
54146;BME280;65909;49.422;7.738;2023-02-13T08:38:06;76551.72;;;-145.25;35.67
54146;BME280;65909;49.422;7.738;2023-02-13T08:40:32;76631.91;;;-145.25;35.74
54146;BME280;65909;49.422;7.738;2023-02-13T08:43:04;76507.59;;;-145.25;35.51
54146;BME280;65909;49.422;7.738;2023-02-13T08:45:30;76507.59;;;-145.25;34.66
54146;BME280;65909;49.422;7.738;2023-02-13T08:47:57;76569.75;;;-145.25;35.64
54146;BME280;65909;49.422;7.738;2023-02-13T08:50:23;76509.59;;;-145.25;34.94
54146;BME280;65909;49.422;7.738;2023-02-13T08:52:49;76593.81;;;-145.25;35.20
54146;BME280;65909;49.422;7.738;2023-02-13T08:55:14;76413.38;;;-145.25;33.84
54146;BME280;65909;49.422;7.738;2023-02-13T08:57:39;76511.59;;;-145.25;35.19
54146;BME280;65909;49.422;7.738;2023-02-13T09:00:05;76409.34;;;-145.25;34.10
54146;BME280;65909;49.422;7.738;2023-02-13T09:02:31;76387.31;;;-145.25;34.07
54146;BME280;65909;49.422;7.738;2023-02-13T09:04:56;76489.56;;;-145.25;33.58
54146;BME280;65909;49.422;7.738;2023-02-13T09:07:22;77010.84;;;-145.25;38.73
54146;BME280;65909;49.422;7.738;2023-02-13T09:09:47;76563.72;;;-145.25;35.99
54146;BME280;65909;49.422;7.738;2023-02-13T09:12:12;76493.56;;;-145.25;34.71
54146;BME280;65909;49.422;7.738;2023-02-13T09:14:38;76940.69;;;-145.25;37.67
54146;BME280;65909;49.422;7.738;2023-02-13T09:17:03;77103.09;;;-145.25;41.47
54146;BME280;65909;49.422;7.738;2023-02-13T09:19:29;76597.81;;;-145.25;37.17
54146;BME280;65909;49.422;7.738;2023-02-13T09:21:54;76501.59;;;-145.25;35.56
54146;BME280;65909;49.422;7.738;2023-02-13T09:24:19;76477.53;;;-145.25;34.30
54146;BME280;65909;49.422;7.738;2023-02-13T09:26:45;76232.94;;;-145.25;32.50
54146;BME280;65909;49.422;7.738;2023-02-13T09:29:10;76144.72;;;-145.25;31.52
54146;BME280;65909;49.422;7.738;2023-02-13T09:31:36;76166.78;;;-145.25;31.82
54146;BME280;65909;49.422;7.738;2023-02-13T09:34:01;76188.84;;;-145.25;31.22
54146;BME280;65909;49.422;7.738;2023-02-13T09:36:26;76413.38;;;-145.25;32.90
54146;BME280;65909;49.422;7.738;2023-02-13T09:38:54;76078.56;;;-145.25;31.23
54146;BME280;65909;49.422;7.738;2023-02-13T09:41:20;76050.50;;;-145.25;30.09
54146;BME280;65909;49.422;7.738;2023-02-13T09:43:52;75922.22;;;-145.25;30.00
54146;BME280;65909;49.422;7.738;2023-02-13T09:46:28;75846.03;;;-145.25;29.40
54146;BME280;65909;49.422;7.738;2023-02-13T09:48:55;75775.88;;;-145.25;29.09
54146;BME280;65909;49.422;7.738;2023-02-13T09:51:22;75789.91;;;-145.25;28.60
54146;BME280;65909;49.422;7.738;2023-02-13T09:54:02;76325.16;;;-145.25;31.82
54146;BME280;65909;49.422;7.738;2023-02-13T09:56:47;76631.91;;;-145.25;33.81
54146;BME280;65909;49.422;7.738;2023-02-13T10:10:51;76052.50;;;-145.25;30.38
54146;BME280;65909;49.422;7.738;2023-02-13T10:14:03;75912.19;;;-145.25;29.18
54146;BME280;65909;49.422;7.738;2023-02-13T10:16:23;76607.84;;;-145.25;32.78
54146;BME280;65909;49.422;7.738;2023-02-13T10:18:56;76960.72;;;-145.25;37.63
54146;BME280;65909;49.422;7.738;2023-02-13T10:21:32;76461.47;;;-145.25;33.78
54146;BME280;65909;49.422;7.738;2023-02-13T10:24:05;76150.75;;;-145.25;31.36
54146;BME280;65909;49.422;7.738;2023-02-13T10:26:37;76092.59;;;-145.25;30.56
54146;BME280;65909;49.422;7.738;2023-02-13T10:32:03;76176.81;;;-145.25;30.08
54146;BME280;65909;49.422;7.738;2023-02-13T10:34:36;75984.34;;;-145.25;28.93
54146;BME280;65909;49.422;7.738;2023-02-13T10:37:13;75926.22;;;-145.25;28.63
54146;BME280;65909;49.422;7.738;2023-02-13T10:39:40;75819.97;;;-145.25;28.88
54146;BME280;65909;49.422;7.738;2023-02-13T10:44:53;76862.47;;;-145.25;37.05
54146;BME280;65909;49.422;7.738;2023-02-13T10:50:30;76401.34;;;-145.25;34.04
54146;BME280;65909;49.422;7.738;2023-02-13T10:53:11;76816.38;;;-145.25;36.22
54146;BME280;65909;49.422;7.738;2023-02-13T10:59:33;76471.50;;;-145.25;33.93
54146;BME280;65909;49.422;7.738;2023-02-13T11:04:11;76038.47;;;-145.25;30.61
54146;BME280;65909;49.422;7.738;2023-02-13T11:06:42;75876.09;;;-145.25;28.63
54146;BME280;65909;49.422;7.738;2023-02-13T11:09:08;75978.34;;;-145.25;29.07
54146;BME280;65909;49.422;7.738;2023-02-13T11:11:37;76355.22;;;-145.25;31.69
54146;BME280;65909;49.422;7.738;2023-02-13T11:14:17;76090.59;;;-145.25;30.84
54146;BME280;65909;49.422;7.738;2023-02-13T11:16:58;75904.16;;;-145.25;28.74
54146;BME280;65909;49.422;7.738;2023-02-13T11:19:34;76301.09;;;-145.25;31.13
54146;BME280;65909;49.422;7.738;2023-02-13T11:22:09;76501.59;;;-145.25;32.65
54146;BME280;65909;49.422;7.738;2023-02-13T11:24:41;76437.44;;;-145.25;32.56
54146;BME280;65909;49.422;7.738;2023-02-13T11:27:09;76100.63;;;-145.25;30.29
54146;BME280;65909;49.422;7.738;2023-02-13T11:29:56;75846.03;;;-145.25;27.64
54146;BME280;65909;49.422;7.738;2023-02-13T11:32:24;76445.44;;;-145.25;32.05
54146;BME280;65909;49.422;7.738;2023-02-13T11:34:50;76008.41;;;-145.25;29.43
54146;BME280;65909;49.422;7.738;2023-02-13T11:37:22;76397.31;;;-145.25;31.36
54146;BME280;65909;49.422;7.738;2023-02-13T11:39:51;75938.25;;;-145.25;28.25
54146;BME280;65909;49.422;7.738;2023-02-13T11:42:31;76094.63;;;-145.25;28.93
54146;BME280;65909;49.422;7.738;2023-02-13T11:45:03;76088.59;;;-145.25;29.32
54146;BME280;65909;49.422;7.738;2023-02-13T11:47:41;75789.91;;;-145.25;27.62
54146;BME280;65909;49.422;7.738;2023-02-13T11:50:20;76114.66;;;-145.25;29.48
54146;BME280;65909;49.422;7.738;2023-02-13T11:53:07;76437.44;;;-145.25;32.18
54146;BME280;65909;49.422;7.738;2023-02-13T11:55:38;76523.63;;;-145.25;32.49
54146;BME280;65909;49.422;7.738;2023-02-13T11:58:22;76842.44;;;-145.25;35.91
54146;BME280;65909;49.422;7.738;2023-02-13T12:00:48;76589.81;;;-145.25;33.94
54146;BME280;65909;49.422;7.738;2023-02-13T12:06:04;76603.84;;;-145.25;33.97
54146;BME280;65909;49.422;7.738;2023-02-13T12:08:33;76557.72;;;-145.25;33.73
54146;BME280;65909;49.422;7.738;2023-02-13T12:11:00;76224.91;;;-145.25;31.48
54146;BME280;65909;49.422;7.738;2023-02-13T12:13:31;76016.44;;;-145.25;29.40
54146;BME280;65909;49.422;7.738;2023-02-13T12:16:02;75942.25;;;-145.25;28.73
54146;BME280;65909;49.422;7.738;2023-02-13T12:18:35;75996.38;;;-145.25;28.73
54146;BME280;65909;49.422;7.738;2023-02-13T12:24:47;76214.91;;;-145.25;30.97
54146;BME280;65909;49.422;7.738;2023-02-13T12:27:39;76734.16;;;-145.25;34.29
54146;BME280;65909;49.422;7.738;2023-02-13T12:35:32;76702.06;;;-145.25;35.16
54146;BME280;65909;49.422;7.738;2023-02-13T12:38:03;76473.50;;;-145.25;33.48
54146;BME280;65909;49.422;7.738;2023-02-13T12:55:11;76700.06;;;-145.25;35.34
54146;BME280;65909;49.422;7.738;2023-02-13T13:00:48;76846.44;;;-145.25;36.03
54146;BME280;65909;49.422;7.738;2023-02-13T13:03:31;76884.53;;;-145.25;37.16
54146;BME280;65909;49.422;7.738;2023-02-13T13:06:17;76722.13;;;-145.25;35.69
54146;BME280;65909;49.422;7.738;2023-02-13T13:09:04;76872.50;;;-145.25;37.19
54146;BME280;65909;49.422;7.738;2023-02-13T13:12:13;76920.63;;;-145.25;37.09
54146;BME280;65909;49.422;7.738;2023-02-13T13:15:15;76918.63;;;-145.25;37.23
54146;BME280;65909;49.422;7.738;2023-02-13T13:18:11;76934.66;;;-145.25;37.45
54146;BME280;65909;49.422;7.738;2023-02-13T13:26:35;77014.88;;;-145.25;37.35
54146;BME280;65909;49.422;7.738;2023-02-13T13:29:05;76960.72;;;-145.25;36.95
54146;BME280;65909;49.422;7.738;2023-02-13T13:31:35;77018.88;;;-145.25;38.59
54146;BME280;65909;49.422;7.738;2023-02-13T13:34:05;77105.09;;;-145.25;39.36
54146;BME280;65909;49.422;7.738;2023-02-13T13:36:50;76972.75;;;-145.25;37.32
54146;BME280;65909;49.422;7.738;2023-02-13T13:39:50;77067.00;;;-145.25;37.83
54146;BME280;65909;49.422;7.738;2023-02-13T13:42:37;77036.91;;;-145.25;37.56
54146;BME280;65909;49.422;7.738;2023-02-13T13:45:44;77060.97;;;-145.25;37.60
54146;BME280;65909;49.422;7.738;2023-02-13T13:50:57;77141.19;;;-145.25;38.84
54146;BME280;65909;49.422;7.738;2023-02-13T13:53:23;77075.03;;;-145.25;38.32
54146;BME280;65909;49.422;7.738;2023-02-13T14:01:27;77095.06;;;-145.25;39.39
54146;BME280;65909;49.422;7.738;2023-02-13T14:03:54;77171.28;;;-145.25;40.16
54146;BME280;65909;49.422;7.738;2023-02-13T14:06:26;77121.13;;;-145.25;39.88
54146;BME280;65909;49.422;7.738;2023-02-13T14:11:34;77159.22;;;-145.25;39.90
54146;BME280;65909;49.422;7.738;2023-02-13T14:14:00;77143.19;;;-145.25;39.84
54146;BME280;65909;49.422;7.738;2023-02-13T14:16:59;77097.06;;;-145.25;39.33
54146;BME280;65909;49.422;7.738;2023-02-13T14:19:32;77081.03;;;-145.25;39.44
54146;BME280;65909;49.422;7.738;2023-02-13T14:24:53;77169.25;;;-145.25;40.45
54146;BME280;65909;49.422;7.738;2023-02-13T14:27:28;77179.28;;;-145.25;41.50
54146;BME280;65909;49.422;7.738;2023-02-13T14:29:55;77097.06;;;-145.25;40.65
54146;BME280;65909;49.422;7.738;2023-02-13T14:34:55;77036.91;;;-145.25;40.07
54146;BME280;65909;49.422;7.738;2023-02-13T14:37:34;77121.13;;;-145.25;41.41
54146;BME280;65909;49.422;7.738;2023-02-13T14:42:44;77253.47;;;-145.25;42.60
54146;BME280;65909;49.422;7.738;2023-02-13T14:45:14;77211.38;;;-145.25;42.47
54146;BME280;65909;49.422;7.738;2023-02-13T14:47:46;77191.31;;;-145.25;42.88
54146;BME280;65909;49.422;7.738;2023-02-13T14:50:22;77115.13;;;-145.25;42.00